sensor_id;sensor_type;location;lat;lon;timestamp;pressure;altitude;pressure_sealevel;temperature;humidity
77469;BME280;68840;50.272;12.818;2024-02-26T00:00:09;94660;;;3.4;72.9
77469;BME280;68840;50.272;12.818;2024-02-26T00:02:06;94657;;;3.4;73.0
77469;BME280;68840;50.272;12.818;2024-02-26T00:04:06;94657;;;3.4;72.9
77469;BME280;68840;50.272;12.818;2024-02-26T00:06:06;94659;;;3.4;73.2
77469;BME280;68840;50.272;12.818;2024-02-26T00:08:06;94660;;;3.4;73.3
77469;BME280;68840;50.272;12.818;2024-02-26T00:10:06;94658;;;3.4;73.4
77469;BME280;68840;50.272;12.818;2024-02-26T00:12:06;94654;;;3.4;72.9
77469;BME280;68840;50.272;12.818;2024-02-26T00:14:05;94651;;;3.4;73.5
77469;BME280;68840;50.272;12.818;2024-02-26T00:16:07;94647;;;3.4;73.2
77469;BME280;68840;50.272;12.818;2024-02-26T00:18:05;94645;;;3.4;73.2
77469;BME280;68840;50.272;12.818;2024-02-26T00:20:10;94645;;;3.4;73.3
77469;BME280;68840;50.272;12.818;2024-02-26T00:22:05;94645;;;3.4;73.5
77469;BME280;68840;50.272;12.818;2024-02-26T00:24:06;94645;;;3.4;73.0
77469;BME280;68840;50.272;12.818;2024-02-26T00:26:05;94642;;;3.4;73.3
77469;BME280;68840;50.272;12.818;2024-02-26T00:28:06;94638;;;3.4;73.0
77469;BME280;68840;50.272;12.818;2024-02-26T00:30:07;94639;;;3.4;73.0
77469;BME280;68840;50.272;12.818;2024-02-26T00:32:06;94638;;;3.4;73.0
77469;BME280;68840;50.272;12.818;2024-02-26T00:34:05;94633;;;3.4;73.3
77469;BME280;68840;50.272;12.818;2024-02-26T00:36:06;94630;;;3.4;73.7
77469;BME280;68840;50.272;12.818;2024-02-26T00:38:06;94628;;;3.4;73.8
77469;BME280;68840;50.272;12.818;2024-02-26T00:40:08;94627;;;3.4;74.0
77469;BME280;68840;50.272;12.818;2024-02-26T00:42:05;94625;;;3.4;74.2
77469;BME280;68840;50.272;12.818;2024-02-26T00:44:05;94623;;;3.4;74.2
77469;BME280;68840;50.272;12.818;2024-02-26T00:46:05;94623;;;3.5;74.1
77469;BME280;68840;50.272;12.818;2024-02-26T00:48:07;94622;;;3.5;74.2
77469;BME280;68840;50.272;12.818;2024-02-26T00:50:07;94618;;;3.5;74.0
77469;BME280;68840;50.272;12.818;2024-02-26T00:52:07;94615;;;3.5;74.2
77469;BME280;68840;50.272;12.818;2024-02-26T00:54:05;94612;;;3.5;73.8
77469;BME280;68840;50.272;12.818;2024-02-26T00:56:06;94610;;;3.6;73.9
77469;BME280;68840;50.272;12.818;2024-02-26T00:58:05;94607;;;3.6;73.8
77469;BME280;68840;50.272;12.818;2024-02-26T01:00:08;94604;;;3.6;73.6
77469;BME280;68840;50.272;12.818;2024-02-26T01:02:06;94599;;;3.6;72.8
77469;BME280;68840;50.272;12.818;2024-02-26T01:04:05;94596;;;3.6;72.8
77469;BME280;68840;50.272;12.818;2024-02-26T01:06:05;94593;;;3.6;73.2
77469;BME280;68840;50.272;12.818;2024-02-26T01:08:06;94592;;;3.6;73.1
77469;BME280;68840;50.272;12.818;2024-02-26T01:10:06;94588;;;3.5;73.1
77469;BME280;68840;50.272;12.818;2024-02-26T01:12:05;94588;;;3.5;72.6
77469;BME280;68840;50.272;12.818;2024-02-26T01:14:06;94586;;;3.5;72.5
77469;BME280;68840;50.272;12.818;2024-02-26T01:16:05;94584;;;3.5;72.5
77469;BME280;68840;50.272;12.818;2024-02-26T01:18:05;94581;;;3.5;72.8
77469;BME280;68840;50.272;12.818;2024-02-26T01:20:06;94579;;;3.4;73.2
77469;BME280;68840;50.272;12.818;2024-02-26T01:22:05;94578;;;3.4;73.3
77469;BME280;68840;50.272;12.818;2024-02-26T01:24:06;94577;;;3.4;72.9
77469;BME280;68840;50.272;12.818;2024-02-26T01:26:05;94575;;;3.4;73.5
77469;BME280;68840;50.272;12.818;2024-02-26T01:28:05;94573;;;3.4;73.4
77469;BME280;68840;50.272;12.818;2024-02-26T01:30:07;94571;;;3.4;72.6
77469;BME280;68840;50.272;12.818;2024-02-26T01:32:06;94571;;;3.4;72.7
77469;BME280;68840;50.272;12.818;2024-02-26T01:34:05;94570;;;3.4;73.3
77469;BME280;68840;50.272;12.818;2024-02-26T01:36:05;94569;;;3.4;73.7
77469;BME280;68840;50.272;12.818;2024-02-26T01:38:05;94568;;;3.4;74.0
77469;BME280;68840;50.272;12.818;2024-02-26T01:40:07;94566;;;3.4;74.7
77469;BME280;68840;50.272;12.818;2024-02-26T01:42:05;94567;;;3.4;75.1
77469;BME280;68840;50.272;12.818;2024-02-26T01:44:06;94564;;;3.4;75.7
77469;BME280;68840;50.272;12.818;2024-02-26T01:46:06;94565;;;3.5;75.8
77469;BME280;68840;50.272;12.818;2024-02-26T01:48:06;94567;;;3.5;76.1
77469;BME280;68840;50.272;12.818;2024-02-26T01:50:06;94567;;;3.6;76.2
77469;BME280;68840;50.272;12.818;2024-02-26T01:52:08;94569;;;3.6;76.2
77469;BME280;68840;50.272;12.818;2024-02-26T01:54:06;94572;;;3.7;76.1
77469;BME280;68840;50.272;12.818;2024-02-26T01:56:05;94571;;;3.8;76.2
77469;BME280;68840;50.272;12.818;2024-02-26T01:58:07;94567;;;3.8;75.8
77469;BME280;68840;50.272;12.818;2024-02-26T02:00:07;94565;;;3.9;75.7
77469;BME280;68840;50.272;12.818;2024-02-26T02:02:08;94562;;;4.0;75.5
77469;BME280;68840;50.272;12.818;2024-02-26T02:04:06;94564;;;4.0;75.7
77469;BME280;68840;50.272;12.818;2024-02-26T02:06:06;94561;;;4.1;75.7
77469;BME280;68840;50.272;12.818;2024-02-26T02:08:06;94560;;;4.1;75.5
77469;BME280;68840;50.272;12.818;2024-02-26T02:10:07;94561;;;4.2;75.3
77469;BME280;68840;50.272;12.818;2024-02-26T02:12:06;94561;;;4.2;75.2
77469;BME280;68840;50.272;12.818;2024-02-26T02:14:06;94560;;;4.3;75.2
77469;BME280;68840;50.272;12.818;2024-02-26T02:16:06;94562;;;4.3;75.0
77469;BME280;68840;50.272;12.818;2024-02-26T02:18:06;94563;;;4.4;74.7
77469;BME280;68840;50.272;12.818;2024-02-26T02:20:08;94564;;;4.4;74.6
77469;BME280;68840;50.272;12.818;2024-02-26T02:22:05;94563;;;4.4;74.4
77469;BME280;68840;50.272;12.818;2024-02-26T02:24:07;94564;;;4.5;74.2
77469;BME280;68840;50.272;12.818;2024-02-26T02:26:05;94567;;;4.5;74.2
77469;BME280;68840;50.272;12.818;2024-02-26T02:28:07;94569;;;4.5;74.3
77469;BME280;68840;50.272;12.818;2024-02-26T02:30:06;94568;;;4.6;73.9
77469;BME280;68840;50.272;12.818;2024-02-26T02:32:06;94570;;;4.6;73.8
77469;BME280;68840;50.272;12.818;2024-02-26T02:34:05;94574;;;4.6;73.4
77469;BME280;68840;50.272;12.818;2024-02-26T02:36:09;94574;;;4.6;73.4
77469;BME280;68840;50.272;12.818;2024-02-26T02:38:06;94574;;;4.7;72.9
77469;BME280;68840;50.272;12.818;2024-02-26T02:40:07;94577;;;4.7;72.5
77469;BME280;68840;50.272;12.818;2024-02-26T02:42:05;94578;;;4.7;72.5
77469;BME280;68840;50.272;12.818;2024-02-26T02:44:05;94578;;;4.8;72.2
77469;BME280;68840;50.272;12.818;2024-02-26T02:46:05;94577;;;4.8;71.8
77469;BME280;68840;50.272;12.818;2024-02-26T02:48:05;94577;;;4.8;71.7
77469;BME280;68840;50.272;12.818;2024-02-26T02:50:06;94578;;;4.8;71.2
77469;BME280;68840;50.272;12.818;2024-02-26T02:52:05;94577;;;4.8;70.9
77469;BME280;68840;50.272;12.818;2024-02-26T02:54:05;94574;;;4.8;70.8
77469;BME280;68840;50.272;12.818;2024-02-26T02:56:06;94573;;;4.8;70.7
77469;BME280;68840;50.272;12.818;2024-02-26T02:58:06;94574;;;4.8;70.8
77469;BME280;68840;50.272;12.818;2024-02-26T03:00:07;94573;;;4.8;70.5
77469;BME280;68840;50.272;12.818;2024-02-26T03:02:06;94574;;;4.8;70.5
77469;BME280;68840;50.272;12.818;2024-02-26T03:04:05;94575;;;4.8;70.6
77469;BME280;68840;50.272;12.818;2024-02-26T03:06:06;94575;;;4.8;70.5
77469;BME280;68840;50.272;12.818;2024-02-26T03:08:05;94576;;;4.8;70.4
77469;BME280;68840;50.272;12.818;2024-02-26T03:10:06;94576;;;4.8;70.3
77469;BME280;68840;50.272;12.818;2024-02-26T03:12:05;94574;;;4.8;70.1
77469;BME280;68840;50.272;12.818;2024-02-26T03:14:06;94571;;;4.8;70.0
77469;BME280;68840;50.272;12.818;2024-02-26T03:16:06;94570;;;4.8;70.1
77469;BME280;68840;50.272;12.818;2024-02-26T03:18:05;94567;;;4.8;70.0
77469;BME280;68840;50.272;12.818;2024-02-26T03:20:09;94568;;;4.8;69.9
77469;BME280;68840;50.272;12.818;2024-02-26T03:22:06;94567;;;4.7;69.8
77469;BME280;68840;50.272;12.818;2024-02-26T03:24:06;94566;;;4.7;69.9
77469;BME280;68840;50.272;12.818;2024-02-26T03:26:05;94568;;;4.7;69.9
77469;BME280;68840;50.272;12.818;2024-02-26T03:28:05;94565;;;4.6;69.9
77469;BME280;68840;50.272;12.818;2024-02-26T03:30:06;94563;;;4.6;69.9
77469;BME280;68840;50.272;12.818;2024-02-26T03:32:06;94562;;;4.6;69.8
77469;BME280;68840;50.272;12.818;2024-02-26T03:34:05;94559;;;4.6;69.8
77469;BME280;68840;50.272;12.818;2024-02-26T03:36:07;94558;;;4.6;69.9
77469;BME280;68840;50.272;12.818;2024-02-26T03:38:05;94557;;;4.6;70.0
77469;BME280;68840;50.272;12.818;2024-02-26T03:40:06;94557;;;4.6;70.2
77469;BME280;68840;50.272;12.818;2024-02-26T03:42:06;94559;;;4.6;70.2
77469;BME280;68840;50.272;12.818;2024-02-26T03:44:05;94558;;;4.6;70.4
77469;BME280;68840;50.272;12.818;2024-02-26T03:46:07;94557;;;4.6;70.5
77469;BME280;68840;50.272;12.818;2024-02-26T03:48:06;94556;;;4.5;70.4
77469;BME280;68840;50.272;12.818;2024-02-26T03:50:07;94553;;;4.5;70.2
77469;BME280;68840;50.272;12.818;2024-02-26T03:52:05;94552;;;4.5;70.2
77469;BME280;68840;50.272;12.818;2024-02-26T03:54:05;94551;;;4.5;70.4
77469;BME280;68840;50.272;12.818;2024-02-26T03:56:06;94550;;;4.5;70.6
77469;BME280;68840;50.272;12.818;2024-02-26T03:58:05;94551;;;4.5;70.7
77469;BME280;68840;50.272;12.818;2024-02-26T04:00:06;94551;;;4.5;70.9
77469;BME280;68840;50.272;12.818;2024-02-26T04:02:05;94554;;;4.5;71.2
77469;BME280;68840;50.272;12.818;2024-02-26T04:04:06;94557;;;4.5;71.2
77469;BME280;68840;50.272;12.818;2024-02-26T04:06:08;94556;;;4.5;71.3
77469;BME280;68840;50.272;12.818;2024-02-26T04:08:07;94561;;;4.5;71.5
77469;BME280;68840;50.272;12.818;2024-02-26T04:10:09;94563;;;4.5;71.7
77469;BME280;68840;50.272;12.818;2024-02-26T04:12:06;94564;;;4.6;71.7
77469;BME280;68840;50.272;12.818;2024-02-26T04:14:08;94565;;;4.6;71.8
77469;BME280;68840;50.272;12.818;2024-02-26T04:16:06;94568;;;4.6;71.8
77469;BME280;68840;50.272;12.818;2024-02-26T04:18:06;94570;;;4.7;71.7
77469;BME280;68840;50.272;12.818;2024-02-26T04:20:06;94575;;;4.7;71.6
77469;BME280;68840;50.272;12.818;2024-02-26T04:22:05;94578;;;4.8;71.6
77469;BME280;68840;50.272;12.818;2024-02-26T04:24:05;94581;;;4.8;71.8
77469;BME280;68840;50.272;12.818;2024-02-26T04:26:05;94583;;;4.8;71.4
77469;BME280;68840;50.272;12.818;2024-02-26T04:28:05;94586;;;4.9;71.5
77469;BME280;68840;50.272;12.818;2024-02-26T04:30:07;94587;;;4.9;71.3
77469;BME280;68840;50.272;12.818;2024-02-26T04:32:06;94586;;;5.0;71.2
77469;BME280;68840;50.272;12.818;2024-02-26T04:34:06;94584;;;5.0;70.9
77469;BME280;68840;50.272;12.818;2024-02-26T04:36:06;94583;;;5.1;70.7
77469;BME280;68840;50.272;12.818;2024-02-26T04:38:05;94582;;;5.1;70.4
77469;BME280;68840;50.272;12.818;2024-02-26T04:40:06;94585;;;5.1;70.5
77469;BME280;68840;50.272;12.818;2024-02-26T04:42:07;94585;;;5.1;70.2
77469;BME280;68840;50.272;12.818;2024-02-26T04:44:05;94591;;;5.1;70.2
77469;BME280;68840;50.272;12.818;2024-02-26T04:46:05;94594;;;5.1;70.0
77469;BME280;68840;50.272;12.818;2024-02-26T04:48:06;94596;;;5.1;69.9
77469;BME280;68840;50.272;12.818;2024-02-26T04:50:06;94598;;;5.1;69.8
77469;BME280;68840;50.272;12.818;2024-02-26T04:52:05;94599;;;5.1;69.8
77469;BME280;68840;50.272;12.818;2024-02-26T04:54:05;94602;;;5.1;69.8
77469;BME280;68840;50.272;12.818;2024-02-26T04:56:06;94601;;;5.1;69.7
77469;BME280;68840;50.272;12.818;2024-02-26T04:58:05;94602;;;5.2;69.6
77469;BME280;68840;50.272;12.818;2024-02-26T05:00:06;94602;;;5.2;69.7
77469;BME280;68840;50.272;12.818;2024-02-26T05:02:05;94603;;;5.2;69.4
77469;BME280;68840;50.272;12.818;2024-02-26T05:04:05;94601;;;5.2;69.2
77469;BME280;68840;50.272;12.818;2024-02-26T05:06:07;94604;;;5.2;69.2
77469;BME280;68840;50.272;12.818;2024-02-26T05:08:07;94602;;;5.2;69.1
77469;BME280;68840;50.272;12.818;2024-02-26T05:10:06;94602;;;5.2;68.9
77469;BME280;68840;50.272;12.818;2024-02-26T05:12:06;94600;;;5.2;68.9
77469;BME280;68840;50.272;12.818;2024-02-26T05:14:05;94601;;;5.2;69.0
77469;BME280;68840;50.272;12.818;2024-02-26T05:16:05;94600;;;5.2;68.6
77469;BME280;68840;50.272;12.818;2024-02-26T05:18:07;94601;;;5.2;68.7
77469;BME280;68840;50.272;12.818;2024-02-26T05:20:07;94600;;;5.2;68.5
77469;BME280;68840;50.272;12.818;2024-02-26T05:22:05;94599;;;5.2;68.5
77469;BME280;68840;50.272;12.818;2024-02-26T05:24:06;94599;;;5.2;68.4
77469;BME280;68840;50.272;12.818;2024-02-26T05:26:05;94597;;;5.2;68.3
77469;BME280;68840;50.272;12.818;2024-02-26T05:28:05;94598;;;5.1;68.5
77469;BME280;68840;50.272;12.818;2024-02-26T05:30:06;94602;;;5.1;68.6
77469;BME280;68840;50.272;12.818;2024-02-26T05:32:06;94604;;;5.1;68.8
77469;BME280;68840;50.272;12.818;2024-02-26T05:34:05;94604;;;5.1;69.0
77469;BME280;68840;50.272;12.818;2024-02-26T05:36:07;94604;;;5.0;69.0
77469;BME280;68840;50.272;12.818;2024-02-26T05:38:06;94603;;;5.0;69.3
77469;BME280;68840;50.272;12.818;2024-02-26T05:40:06;94605;;;5.0;69.4
77469;BME280;68840;50.272;12.818;2024-02-26T05:42:06;94605;;;5.0;69.3
77469;BME280;68840;50.272;12.818;2024-02-26T05:44:05;94604;;;5.0;69.2
77469;BME280;68840;50.272;12.818;2024-02-26T05:46:05;94604;;;5.0;69.4
77469;BME280;68840;50.272;12.818;2024-02-26T05:48:06;94605;;;4.9;69.7
77469;BME280;68840;50.272;12.818;2024-02-26T05:50:06;94605;;;4.9;69.6
77469;BME280;68840;50.272;12.818;2024-02-26T05:52:06;94605;;;4.9;69.5
77469;BME280;68840;50.272;12.818;2024-02-26T05:54:05;94605;;;4.9;69.6
77469;BME280;68840;50.272;12.818;2024-02-26T05:56:06;94604;;;4.9;69.6
77469;BME280;68840;50.272;12.818;2024-02-26T05:58:05;94601;;;4.9;69.8
77469;BME280;68840;50.272;12.818;2024-02-26T06:00:06;94602;;;4.8;69.8
77469;BME280;68840;50.272;12.818;2024-02-26T06:02:05;94605;;;4.8;70.0
77469;BME280;68840;50.272;12.818;2024-02-26T06:04:05;94605;;;4.8;70.2
77469;BME280;68840;50.272;12.818;2024-02-26T06:06:06;94607;;;4.8;70.3
77469;BME280;68840;50.272;12.818;2024-02-26T06:08:06;94606;;;4.8;70.3
77469;BME280;68840;50.272;12.818;2024-02-26T06:10:06;94606;;;4.8;70.5
77469;BME280;68840;50.272;12.818;2024-02-26T06:12:06;94609;;;4.8;70.4
77469;BME280;68840;50.272;12.818;2024-02-26T06:14:05;94608;;;4.8;70.6
77469;BME280;68840;50.272;12.818;2024-02-26T06:16:07;94610;;;4.7;70.6
77469;BME280;68840;50.272;12.818;2024-02-26T06:18:05;94609;;;4.7;70.6
77469;BME280;68840;50.272;12.818;2024-02-26T06:20:06;94609;;;4.7;70.8
77469;BME280;68840;50.272;12.818;2024-02-26T06:22:05;94610;;;4.7;70.8
77469;BME280;68840;50.272;12.818;2024-02-26T06:24:05;94611;;;4.7;70.8
77469;BME280;68840;50.272;12.818;2024-02-26T06:26:05;94610;;;4.7;70.8
77469;BME280;68840;50.272;12.818;2024-02-26T06:28:06;94611;;;4.7;70.8
77469;BME280;68840;50.272;12.818;2024-02-26T06:30:06;94612;;;4.7;70.9
77469;BME280;68840;50.272;12.818;2024-02-26T06:32:06;94612;;;4.7;70.8
77469;BME280;68840;50.272;12.818;2024-02-26T06:34:06;94613;;;4.7;71.1
77469;BME280;68840;50.272;12.818;2024-02-26T06:36:06;94614;;;4.6;71.5
77469;BME280;68840;50.272;12.818;2024-02-26T06:38:05;94616;;;4.6;71.6
77469;BME280;68840;50.272;12.818;2024-02-26T06:40:06;94619;;;4.6;71.8
77469;BME280;68840;50.272;12.818;2024-02-26T06:42:06;94621;;;4.6;71.6
77469;BME280;68840;50.272;12.818;2024-02-26T06:44:06;94619;;;4.7;71.5
77469;BME280;68840;50.272;12.818;2024-02-26T06:46:05;94617;;;4.7;71.5
77469;BME280;68840;50.272;12.818;2024-02-26T06:48:06;94617;;;4.7;71.4
77469;BME280;68840;50.272;12.818;2024-02-26T06:50:06;94618;;;4.7;71.5
77469;BME280;68840;50.272;12.818;2024-02-26T06:52:06;94617;;;4.7;71.3
77469;BME280;68840;50.272;12.818;2024-02-26T06:54:05;94616;;;4.7;71.5
77469;BME280;68840;50.272;12.818;2024-02-26T06:56:05;94619;;;4.8;71.4
77469;BME280;68840;50.272;12.818;2024-02-26T06:58:05;94623;;;4.8;71.4
77469;BME280;68840;50.272;12.818;2024-02-26T07:00:06;94625;;;4.8;71.3
77469;BME280;68840;50.272;12.818;2024-02-26T07:02:05;94627;;;4.8;71.2
77469;BME280;68840;50.272;12.818;2024-02-26T07:04:05;94628;;;4.9;71.4
77469;BME280;68840;50.272;12.818;2024-02-26T07:06:05;94631;;;4.9;71.3
77469;BME280;68840;50.272;12.818;2024-02-26T07:08:06;94633;;;4.9;71.4
77469;BME280;68840;50.272;12.818;2024-02-26T07:10:06;94635;;;5.0;71.3
77469;BME280;68840;50.272;12.818;2024-02-26T07:12:05;94635;;;5.0;70.8
77469;BME280;68840;50.272;12.818;2024-02-26T07:14:05;94631;;;5.0;71.3
77469;BME280;68840;50.272;12.818;2024-02-26T07:16:08;94631;;;5.1;71.1
77469;BME280;68840;50.272;12.818;2024-02-26T07:18:05;94633;;;5.1;70.9
77469;BME280;68840;50.272;12.818;2024-02-26T07:20:06;94633;;;5.2;71.0
77469;BME280;68840;50.272;12.818;2024-02-26T07:22:05;94634;;;5.2;71.0
77469;BME280;68840;50.272;12.818;2024-02-26T07:24:06;94640;;;5.3;70.3
77469;BME280;68840;50.272;12.818;2024-02-26T07:26:05;94642;;;5.3;70.4
77469;BME280;68840;50.272;12.818;2024-02-26T07:28:05;94643;;;5.4;70.1
77469;BME280;68840;50.272;12.818;2024-02-26T07:30:06;94645;;;5.4;69.7
77469;BME280;68840;50.272;12.818;2024-02-26T07:32:06;94643;;;5.4;70.1
77469;BME280;68840;50.272;12.818;2024-02-26T07:34:05;94642;;;5.5;69.9
77469;BME280;68840;50.272;12.818;2024-02-26T07:36:06;94640;;;5.5;69.7
77469;BME280;68840;50.272;12.818;2024-02-26T07:38:05;94639;;;5.5;69.8
77469;BME280;68840;50.272;12.818;2024-02-26T07:40:08;94640;;;5.6;69.5
77469;BME280;68840;50.272;12.818;2024-02-26T07:42:06;94641;;;5.6;69.3
77469;BME280;68840;50.272;12.818;2024-02-26T07:44:05;94642;;;5.6;69.2
77469;BME280;68840;50.272;12.818;2024-02-26T07:46:05;94639;;;5.6;68.7
77469;BME280;68840;50.272;12.818;2024-02-26T07:48:07;94638;;;5.6;69.2
77469;BME280;68840;50.272;12.818;2024-02-26T07:50:07;94640;;;5.6;69.2
77469;BME280;68840;50.272;12.818;2024-02-26T07:52:06;94642;;;5.6;69.2
77469;BME280;68840;50.272;12.818;2024-02-26T07:54:06;94640;;;5.6;68.9
77469;BME280;68840;50.272;12.818;2024-02-26T07:56:06;94637;;;5.7;68.4
77469;BME280;68840;50.272;12.818;2024-02-26T07:58:06;94636;;;5.6;69.1
77469;BME280;68840;50.272;12.818;2024-02-26T08:00:08;94637;;;5.7;68.9
77469;BME280;68840;50.272;12.818;2024-02-26T08:02:05;94640;;;5.7;68.7
77469;BME280;68840;50.272;12.818;2024-02-26T08:04:05;94643;;;5.7;69.0
77469;BME280;68840;50.272;12.818;2024-02-26T08:06:07;94645;;;5.7;68.6
77469;BME280;68840;50.272;12.818;2024-02-26T08:08:06;94648;;;5.7;68.2
77469;BME280;68840;50.272;12.818;2024-02-26T08:10:07;94650;;;5.7;68.7
77469;BME280;68840;50.272;12.818;2024-02-26T08:12:06;94650;;;5.7;68.8
77469;BME280;68840;50.272;12.818;2024-02-26T08:14:05;94653;;;5.7;68.9
77469;BME280;68840;50.272;12.818;2024-02-26T08:16:06;94659;;;5.8;68.9
77469;BME280;68840;50.272;12.818;2024-02-26T08:18:05;94660;;;5.8;68.7
77469;BME280;68840;50.272;12.818;2024-02-26T08:20:06;94664;;;5.8;68.8
77469;BME280;68840;50.272;12.818;2024-02-26T08:22:05;94663;;;5.9;68.4
77469;BME280;68840;50.272;12.818;2024-02-26T08:24:06;94667;;;5.9;68.3
77469;BME280;68840;50.272;12.818;2024-02-26T08:26:07;94668;;;5.9;67.9
77469;BME280;68840;50.272;12.818;2024-02-26T08:28:05;94672;;;5.9;68.5
77469;BME280;68840;50.272;12.818;2024-02-26T08:30:07;94675;;;6.0;68.4
77469;BME280;68840;50.272;12.818;2024-02-26T08:32:07;94679;;;6.0;68.4
77469;BME280;68840;50.272;12.818;2024-02-26T08:34:06;94683;;;6.1;67.7
77469;BME280;68840;50.272;12.818;2024-02-26T08:36:06;94679;;;6.1;67.5
77469;BME280;68840;50.272;12.818;2024-02-26T08:38:05;94676;;;6.1;67.4
77469;BME280;68840;50.272;12.818;2024-02-26T08:40:06;94674;;;6.1;67.9
77469;BME280;68840;50.272;12.818;2024-02-26T08:42:06;94670;;;6.2;67.5
77469;BME280;68840;50.272;12.818;2024-02-26T08:44:05;94669;;;6.2;67.4
77469;BME280;68840;50.272;12.818;2024-02-26T08:46:08;94670;;;6.3;68.0
77469;BME280;68840;50.272;12.818;2024-02-26T08:48:06;94670;;;6.3;67.0
77469;BME280;68840;50.272;12.818;2024-02-26T08:50:06;94671;;;6.4;67.0
77469;BME280;68840;50.272;12.818;2024-02-26T08:52:06;94676;;;6.4;66.7
77469;BME280;68840;50.272;12.818;2024-02-26T08:54:05;94682;;;6.4;66.4
77469;BME280;68840;50.272;12.818;2024-02-26T08:56:06;94686;;;6.4;65.8
77469;BME280;68840;50.272;12.818;2024-02-26T08:58:05;94690;;;6.4;66.0
77469;BME280;68840;50.272;12.818;2024-02-26T09:00:06;94691;;;6.4;66.9
77469;BME280;68840;50.272;12.818;2024-02-26T09:02:05;94692;;;6.4;66.4
77469;BME280;68840;50.272;12.818;2024-02-26T09:04:05;94692;;;6.4;66.1
77469;BME280;68840;50.272;12.818;2024-02-26T09:06:06;94691;;;6.4;66.6
77469;BME280;68840;50.272;12.818;2024-02-26T09:08:06;94695;;;6.4;67.1
77469;BME280;68840;50.272;12.818;2024-02-26T09:10:08;94700;;;6.4;66.1
77469;BME280;68840;50.272;12.818;2024-02-26T09:12:06;94702;;;6.4;66.2
77469;BME280;68840;50.272;12.818;2024-02-26T09:14:06;94705;;;6.4;65.9
77469;BME280;68840;50.272;12.818;2024-02-26T09:16:06;94709;;;6.5;66.4
77469;BME280;68840;50.272;12.818;2024-02-26T09:18:05;94710;;;6.5;66.3
77469;BME280;68840;50.272;12.818;2024-02-26T09:20:09;94711;;;6.6;65.6
77469;BME280;68840;50.272;12.818;2024-02-26T09:22:05;94710;;;6.6;65.2
77469;BME280;68840;50.272;12.818;2024-02-26T09:24:05;94716;;;6.7;65.8
77469;BME280;68840;50.272;12.818;2024-02-26T09:26:06;94720;;;6.7;65.3
77469;BME280;68840;50.272;12.818;2024-02-26T09:28:06;94719;;;6.7;65.2
77469;BME280;68840;50.272;12.818;2024-02-26T09:30:07;94721;;;6.8;65.1
77469;BME280;68840;50.272;12.818;2024-02-26T09:32:06;94721;;;6.8;65.5
77469;BME280;68840;50.272;12.818;2024-02-26T09:34:05;94720;;;6.8;65.1
77469;BME280;68840;50.272;12.818;2024-02-26T09:36:06;94717;;;6.8;64.8
77469;BME280;68840;50.272;12.818;2024-02-26T09:38:05;94714;;;6.8;64.9
77469;BME280;68840;50.272;12.818;2024-02-26T09:40:06;94714;;;6.8;64.7
77469;BME280;68840;50.272;12.818;2024-02-26T09:42:09;94718;;;6.8;64.9
77469;BME280;68840;50.272;12.818;2024-02-26T09:44:05;94721;;;6.8;65.4
77469;BME280;68840;50.272;12.818;2024-02-26T09:46:06;94722;;;6.8;65.6
77469;BME280;68840;50.272;12.818;2024-02-26T09:48:08;94726;;;6.8;64.8
77469;BME280;68840;50.272;12.818;2024-02-26T09:50:08;94729;;;6.8;64.6
77469;BME280;68840;50.272;12.818;2024-02-26T09:52:06;94727;;;6.8;64.5
77469;BME280;68840;50.272;12.818;2024-02-26T09:54:08;94726;;;6.8;65.0
77469;BME280;68840;50.272;12.818;2024-02-26T09:56:07;94730;;;6.8;64.6
77469;BME280;68840;50.272;12.818;2024-02-26T09:58:06;94730;;;6.8;64.6
77469;BME280;68840;50.272;12.818;2024-02-26T10:00:09;94732;;;6.8;64.7
77469;BME280;68840;50.272;12.818;2024-02-26T10:02:07;94732;;;6.9;64.4
77469;BME280;68840;50.272;12.818;2024-02-26T10:04:06;94736;;;6.9;64.4
77469;BME280;68840;50.272;12.818;2024-02-26T10:06:07;94739;;;6.9;64.0
77469;BME280;68840;50.272;12.818;2024-02-26T10:08:06;94742;;;6.9;64.5
77469;BME280;68840;50.272;12.818;2024-02-26T10:10:06;94743;;;6.9;64.3
77469;BME280;68840;50.272;12.818;2024-02-26T10:12:08;94744;;;6.9;64.7
77469;BME280;68840;50.272;12.818;2024-02-26T10:14:05;94743;;;7.0;65.9
77469;BME280;68840;50.272;12.818;2024-02-26T10:16:06;94741;;;7.1;65.1
77469;BME280;68840;50.272;12.818;2024-02-26T10:18:06;94741;;;7.1;65.4
77469;BME280;68840;50.272;12.818;2024-02-26T10:20:15;94738;;;7.2;64.1
77469;BME280;68840;50.272;12.818;2024-02-26T10:22:06;94736;;;7.2;64.0
77469;BME280;68840;50.272;12.818;2024-02-26T10:24:13;94735;;;7.3;64.3
77469;BME280;68840;50.272;12.818;2024-02-26T10:26:07;94737;;;7.3;63.2
77469;BME280;68840;50.272;12.818;2024-02-26T10:28:06;94735;;;7.2;62.8
77469;BME280;68840;50.272;12.818;2024-02-26T10:30:16;94737;;;7.2;62.6
77469;BME280;68840;50.272;12.818;2024-02-26T10:32:06;94738;;;7.1;63.1
77469;BME280;68840;50.272;12.818;2024-02-26T10:34:05;94742;;;7.1;63.1
77469;BME280;68840;50.272;12.818;2024-02-26T10:36:07;94744;;;7.0;63.5
77469;BME280;68840;50.272;12.818;2024-02-26T10:38:06;94749;;;7.0;63.8
77469;BME280;68840;50.272;12.818;2024-02-26T10:40:09;94753;;;7.0;63.6
77469;BME280;68840;50.272;12.818;2024-02-26T10:42:12;94752;;;7.0;63.7
77469;BME280;68840;50.272;12.818;2024-02-26T10:44:06;94749;;;7.0;63.5
77469;BME280;68840;50.272;12.818;2024-02-26T10:46:07;94749;;;7.0;63.3
77469;BME280;68840;50.272;12.818;2024-02-26T10:48:09;94747;;;7.0;63.5
77469;BME280;68840;50.272;12.818;2024-02-26T10:50:06;94747;;;7.0;63.7
77469;BME280;68840;50.272;12.818;2024-02-26T10:52:06;94744;;;7.1;63.8
77469;BME280;68840;50.272;12.818;2024-02-26T10:54:07;94742;;;7.1;65.1
77469;BME280;68840;50.272;12.818;2024-02-26T10:56:06;94740;;;7.2;64.0
77469;BME280;68840;50.272;12.818;2024-02-26T10:58:08;94745;;;7.3;63.2
77469;BME280;68840;50.272;12.818;2024-02-26T11:00:07;94745;;;7.4;63.2
77469;BME280;68840;50.272;12.818;2024-02-26T11:02:08;94747;;;7.4;62.6
77469;BME280;68840;50.272;12.818;2024-02-26T11:04:06;94750;;;7.4;62.8
77469;BME280;68840;50.272;12.818;2024-02-26T11:06:06;94750;;;7.5;62.5
77469;BME280;68840;50.272;12.818;2024-02-26T11:08:06;94749;;;7.5;61.9
77469;BME280;68840;50.272;12.818;2024-02-26T11:10:08;94748;;;7.4;61.9
77469;BME280;68840;50.272;12.818;2024-02-26T11:12:11;94749;;;7.4;62.1
77469;BME280;68840;50.272;12.818;2024-02-26T11:14:06;94747;;;7.4;61.6
77469;BME280;68840;50.272;12.818;2024-02-26T11:16:07;94745;;;7.4;62.2
77469;BME280;68840;50.272;12.818;2024-02-26T11:18:07;94746;;;7.4;61.8
77469;BME280;68840;50.272;12.818;2024-02-26T11:20:10;94748;;;7.3;62.2